Pagrindinis puslapis
METAR-TAF:

METAR-TAF

Oro uostai :

Mersing, Malaizija

platuma: 02-23-00N, ilguma: 103-51-34E, Aukštis: 3 m

Dabartinis oras

Ataskaita buvo paskelbta 53 minutes, ne 00:00 UTC
Vėjas 4 kt iš Vakarų/Pietvakarių, svyruoja nuo Pietų/Pietvakarių ir Šiaurės Vakarų
Temperatūra 24°C
Drėgmė 94%
Slėgis 1011 hPa
Matomumas: 8000 m
Mažai debesys ne aukštis 1800 ft, aukštai iškilę kamuoliniai debesys.

METAR: WMAU 290000Z 24004KT 200V310 8000 FEW018TCU 24/23 Q1011

Laikas: 08:53 (00:53 UTC)


TAF: trūkstamas

Orai ataskaitas ir orų prognozės (METAR, TAF).

turimą stotys yra geltonos ir raudonos taškus žemėlapyje.

Perkelti pele per norėdami pamatyti stoties vardą.

Tada spustelėkite, norėdami matyti oro stebėjimo ir prognozės.

Norėdami pakeisti žemėlapį: spustelėkite ant žalios mygtukų su juodo kryžiaus žemyn,; žalią mygtuką su brūkšneliu, jei norite nutolinti; arba žalių rodyklių gretimoms žemėlapius.


METAR-TAF: